ADDS METAR Data INFO
IDs: Format: Raw Decoded Include TAF

Data at: 0353 UTC 19 Jul 2018

KISQ 190335Z AUTO 21005KT 10SM CLR 16/15 A3004 RMK AO2 T01570148
KISQ 190315Z AUTO 21004KT 10SM CLR 16/15 A3004 RMK AO2 T01560147
KISQ 190255Z AUTO 20004KT 10SM CLR 16/15 A3004 RMK AO2 T01550146
KISQ 190235Z AUTO 20004KT 10SM CLR 16/15 A3004 RMK AO2 T01570148
KISQ 190215Z AUTO 20005KT 10SM CLR 16/16 A3004 RMK AO2 T01630155
KISQ 190155Z AUTO 21006KT 10SM CLR 17/16 A3004 RMK AO2 T01650156
KISQ 190135Z AUTO 21005KT 10SM CLR 17/16 A3004 RMK AO2 T01670158
KISQ 190115Z AUTO 20008KT 10SM CLR 17/16 A3004 RMK AO2 T01680160
KISQ 190055Z AUTO 20007KT 10SM CLR 17/16 A3004 RMK AO2 T01720163
KISQ 190035Z AUTO 21008KT 10SM CLR 18/16 A3005 RMK AO2 T01780164
KISQ 190015Z AUTO 21007G14KT 10SM CLR 18/17 A3005 RMK AO2 T01810166
KISQ 182355Z AUTO 21007KT 10SM CLR 18/16 A3006 RMK AO2 T01830164 10200 20183
KISQ 182335Z AUTO 21009G16KT 10SM CLR 19/16 A3006 RMK AO2 T01860162
KISQ 182315Z AUTO 19009KT 10SM CLR 19/16 A3006 RMK AO2 T01880156
KISQ 182255Z AUTO 20008KT 10SM CLR 19/15 A3006 RMK AO2 T01920150
KISQ 182235Z AUTO 19009KT 10SM CLR 19/15 A3006 RMK AO2 T01890149
KISQ 182215Z AUTO 19009KT 10SM CLR 19/15 A3007 RMK AO2 T01940150
KISQ 182155Z AUTO 19009KT 10SM CLR 19/15 A3007 RMK AO2 T01920147
KISQ 182135Z AUTO 20010G14KT 10SM CLR 20/15 A3008 RMK AO2 T01960146
KISQ 182115Z AUTO 18011KT 10SM CLR 19/14 A3008 RMK AO2 T01940140
KISQ 182055Z AUTO 18009KT 10SM CLR 20/14 A3008 RMK AO2 T01950139
KISQ 182035Z AUTO 18010KT 10SM CLR 19/14 A3009 RMK AO2 T01930136
KISQ 182015Z AUTO 19009KT 10SM CLR 20/14 A3009 RMK AO2 T01980139
KISQ 181955Z AUTO 17007KT 10SM CLR 19/14 A3009 RMK AO2 T01920135
KISQ 181935Z AUTO 19008KT 10SM CLR 19/13 A3010 RMK AO2 T01920134
KISQ 181915Z AUTO 20009KT 10SM CLR 20/13 A3010 RMK AO2 T01950133
KISQ 181855Z AUTO 18009KT 10SM CLR 19/13 A3010 RMK AO2 T01920133
KISQ 181835Z AUTO 18010KT 10SM CLR 19/13 A3011 RMK AO2 T01910130
KISQ 181815Z AUTO 18008KT 10SM CLR 20/13 A3011 RMK AO2 T01950126
KISQ 181755Z AUTO 19010KT 10SM SCT050 20/13 A3011 RMK AO2 T01970125 10199 20092
KISQ 181735Z AUTO 20009KT 10SM SCT048 19/12 A3012 RMK AO2 T01920121
KISQ 181715Z AUTO 17008KT 10SM SCT045 19/12 A3012 RMK AO2 T01930122
KISQ 181655Z AUTO 18010KT 10SM SCT039 19/11 A3012 RMK AO2 T01920114
KISQ 181635Z AUTO 18007KT 10SM SCT039 20/11 A3012 RMK AO2 T01980113
KISQ 181615Z AUTO 18006KT 10SM CLR 20/11 A3013 RMK AO2 T01960113
KISQ 181555Z AUTO 20006KT 10SM CLR 20/11 A3014 RMK AO2 T01970111
KISQ 181535Z AUTO 29005KT 10SM CLR 19/11 A3014 RMK AO2 T01900109
KISQ 181515Z AUTO 00000KT 10SM CLR 18/10 A3014 RMK AO2 T01830104
KISQ 181455Z AUTO 21004KT 10SM CLR 18/11 A3014 RMK AO2 T01800107
KISQ 181435Z AUTO 21005KT 10SM CLR 19/10 A3015 RMK AO2 T01850104
KISQ 181415Z AUTO 00000KT 10SM CLR 18/09 A3015 RMK AO2 T01780091
KISQ 181355Z AUTO 28003KT 10SM CLR 17/10 A3015 RMK AO2 T01700096
KISQ 181335Z AUTO 27004KT 10SM CLR 16/11 A3017 RMK AO2 T01580108
KISQ 181315Z AUTO 29005KT 10SM CLR 14/11 A3017 RMK AO2 T01440113
KISQ 181255Z AUTO 30004KT 10SM CLR 13/12 A3018 RMK AO2 T01340123
KISQ 181235Z AUTO 30003KT 10SM CLR 12/11 A3017 RMK AO2 T01210112
KISQ 181215Z AUTO 29004KT 10SM SCT002 11/10 A3017 RMK AO2 T01050096
KISQ 181155Z AUTO 00000KT M1/4SM FG OVC002 09/08 A3017 RMK AO2 T00900080 10090 20029
KISQ 181135Z AUTO 00000KT M1/4SM FG OVC002 09/08 A3017 RMK AO2 T00870079
KISQ 181115Z AUTO 29003KT 10SM CLR 06/05 A3017 RMK AO2 T00610052
KISQ 181055Z AUTO 28008KT 10SM CLR 04/03 A3017 RMK AO2 T00370028
KISQ 181035Z AUTO 00000KT 10SM CLR 03/02 A3016 RMK AO2 T00300021
KISQ 181015Z AUTO 00000KT 10SM CLR 03/02 A3015 RMK AO2 T00300022
KISQ 180955Z AUTO 27008KT 10SM CLR 04/03 A3015 RMK AO2 T00350027
KISQ 180935Z AUTO 00000KT 10SM CLR 04/03 A3015 RMK AO2 T00370029
KISQ 180915Z AUTO 00000KT 10SM CLR 05/04 A3015 RMK AO2 T00480040
KISQ 180855Z AUTO 00000KT 10SM CLR 04/04 A3015 RMK AO2 T00440035
KISQ 180835Z AUTO 00000KT 10SM CLR 04/03 A3015 RMK AO2 T00420034
KISQ 180815Z AUTO 00000KT 10SM CLR 06/05 A3015 RMK AO2 T00580049
KISQ 180755Z AUTO 00000KT 5SM BR CLR 05/04 A3014 RMK AO2 T00450037
KISQ 180735Z AUTO 00000KT 10SM CLR 06/05 A3015 RMK AO2 T00580049
KISQ 180715Z AUTO 00000KT 10SM CLR 06/05 A3015 RMK AO2 T00590049
KISQ 180655Z AUTO 00000KT 10SM CLR 06/06 A3014 RMK AO2 T00630055
KISQ 180635Z AUTO 32004KT 10SM CLR 07/06 A3013 RMK AO2 T00660057
KISQ 180615Z AUTO 32003KT 10SM CLR 06/06 A3013 RMK AO2 T00630055
KISQ 180555Z AUTO 00000KT 10SM CLR 07/06 A3013 RMK AO2 T00700061 10159 20066
KISQ 180535Z AUTO 00000KT 10SM CLR 08/07 A3012 RMK AO2 T00750066
KISQ 180515Z AUTO 01004KT 10SM CLR 08/07 A3012 RMK AO2 T00750065
KISQ 180455Z AUTO 36005KT 10SM CLR 08/07 A3012 RMK AO2 T00750065
KISQ 180435Z AUTO 36004KT 10SM CLR 08/07 A3012 RMK AO2 T00760067
KISQ 180415Z AUTO 35004KT 10SM CLR 08/07 A3012 RMK AO2 T00820073
KISQ 180355Z AUTO 35004KT 10SM CLR 08/08 A3012 RMK AO2 T00840075 402050083
KISQ 180335Z AUTO 01005KT 10SM CLR 09/08 A3012 RMK AO2 T00850076
KISQ 180315Z AUTO 36005KT 10SM CLR 09/08 A3012 RMK AO2 T00850076
KISQ 180255Z AUTO 36005KT 10SM CLR 09/08 A3012 RMK AO2 T00930077
KISQ 180235Z AUTO 35005KT 10SM CLR 10/08 A3012 RMK AO2 T00950076
KISQ 180215Z AUTO 36004KT 10SM CLR 10/07 A3012 RMK AO2 T01000072
KISQ 180155Z AUTO 35004KT 10SM CLR 10/07 A3012 RMK AO2 T01030069
KISQ 180135Z AUTO 34004KT 10SM CLR 12/07 A3011 RMK AO2 T01200065
KISQ 180115Z AUTO 34005KT 10SM CLR 13/07 A3011 RMK AO2 T01300065
KISQ 180055Z AUTO 34007KT 10SM CLR 14/07 A3011 RMK AO2 T01400066
KISQ 180035Z AUTO 34007G15KT 10SM CLR 15/07 A3011 RMK AO2 T01470067
KISQ 180015Z AUTO 34008KT 10SM CLR 15/07 A3011 RMK AO2 T01540072
KISQ 172355Z AUTO 34010KT 10SM CLR 16/08 A3011 RMK AO2 T01610077 10205 20161
KISQ 172335Z AUTO 34007KT 10SM CLR 17/08 A3011 RMK AO2 T01690083
KISQ 172315Z AUTO 32011G18KT 10SM CLR 17/09 A3011 RMK AO2 T01740085
KISQ 172255Z AUTO 32009G15KT 10SM CLR 18/09 A3010 RMK AO2 T01810090
KISQ 172235Z AUTO 34011G14KT 10SM CLR 18/09 A3011 RMK AO2 T01830092
KISQ 172215Z AUTO 34012KT 10SM CLR 19/09 A3011 RMK AO2 T01850090
KISQ 172155Z AUTO 33013G17KT 10SM CLR 19/09 A3011 RMK AO2 T01860091
KISQ 172135Z AUTO 35014KT 10SM CLR 19/10 A3011 RMK AO2 T01900095
KISQ 172115Z AUTO 35015G21KT 10SM CLR 19/10 A3011 RMK AO2 T01940099
KISQ 172055Z AUTO 35012G16KT 10SM CLR 20/10 A3011 RMK AO2 T01950097
KISQ 172035Z AUTO 33013G18KT 10SM CLR 20/10 A3010 RMK AO2 T01980096
KISQ 172015Z AUTO 35013G20KT 10SM SCT039 20/10 A3010 RMK AO2 T01980095
KISQ 171955Z AUTO 33011G20KT 10SM SCT039 20/10 A3010 RMK AO2 T01980099
KISQ 171935Z AUTO 35015G20KT 310V010 10SM SCT037 20/10 A3010 RMK AO2 T02020095
KISQ 171915Z AUTO 32015G18KT 10SM SCT037 20/10 A3010 RMK AO2 T01990099
KISQ 171855Z AUTO 34012G22KT 300V010 10SM SCT035 20/11 A3010 RMK AO2 T02030105
KISQ 171835Z AUTO 34008G18KT 10SM BKN035 20/10 A3010 RMK AO2 T01950103
KISQ 171815Z AUTO 32013KT 10SM BKN035 19/10 A3010 RMK AO2 T01920101
KISQ 171755Z AUTO 32010G17KT 10SM BKN035 20/10 A3009 RMK AO2 T01950104 10201 20141
KISQ 171735Z AUTO 33011G17KT 10SM BKN035 19/10 A3009 RMK AO2 T01910104
KISQ 171715Z AUTO 34009G18KT 10SM BKN035 BKN042 19/11 A3009 RMK AO2 T01920108
KISQ 171655Z AUTO 35011G18KT 10SM BKN035 OVC040 20/11 A3009 RMK AO2 T01960108
KISQ 171635Z AUTO 34011G17KT 10SM OVC035 19/11 A3009 RMK AO2 T01910107
KISQ 171615Z AUTO 31010G19KT 10SM BKN035 OVC041 19/11 A3008 RMK AO2 T01850105
KISQ 171555Z AUTO 35012G18KT 10SM BKN033 OVC039 18/10 A3008 RMK AO2 T01810103